createdAt,value
2019-04-21T00:01:12.573Z,16.70
2019-04-21T00:03:48.609Z,16.60
2019-04-21T00:06:37.026Z,16.60
2019-04-21T00:09:14.587Z,16.60
2019-04-21T00:11:44.118Z,16.60
2019-04-21T00:14:05.786Z,16.60
2019-04-21T00:16:36.901Z,16.50
2019-04-21T00:19:20.854Z,16.50
2019-04-21T00:21:53.534Z,16.50
2019-04-21T00:24:35.717Z,16.40
2019-04-21T00:27:13.899Z,16.40
2019-04-21T00:29:45.690Z,16.40
2019-04-21T00:32:10.075Z,16.40
2019-04-21T00:34:27.992Z,16.40
2019-04-21T00:37:11.005Z,16.40
2019-04-21T00:42:25.788Z,16.30
2019-04-21T00:44:56.624Z,16.30
2019-04-21T00:47:32.923Z,16.30
2019-04-21T00:50:05.297Z,16.20
2019-04-21T00:53:05.450Z,16.20
2019-04-21T00:56:03.582Z,16.20
2019-04-21T00:58:23.650Z,16.10
2019-04-21T01:00:51.213Z,16.10
2019-04-21T01:03:26.134Z,16.10
2019-04-21T01:05:57.297Z,16.00
2019-04-21T01:08:26.756Z,16.00
2019-04-21T01:10:54.176Z,16.00
2019-04-21T01:13:56.708Z,15.90
2019-04-21T01:16:07.148Z,15.90
2019-04-21T01:18:39.457Z,15.80
2019-04-21T01:20:51.210Z,15.80
2019-04-21T01:23:21.818Z,15.80
2019-04-21T01:26:06.920Z,15.70
2019-04-21T01:28:39.938Z,15.70
2019-04-21T01:31:17.082Z,15.70
2019-04-21T01:33:50.680Z,15.70
2019-04-21T01:36:17.747Z,15.70
2019-04-21T01:39:01.068Z,15.60
2019-04-21T01:41:33.661Z,15.60
2019-04-21T01:44:01.507Z,15.60
2019-04-21T01:46:30.916Z,15.60
2019-04-21T01:49:01.721Z,15.60
2019-04-21T01:51:46.808Z,15.60
2019-04-21T01:54:37.655Z,15.60
2019-04-21T01:57:12.950Z,15.60
2019-04-21T01:59:44.804Z,15.60
2019-04-21T02:02:26.634Z,15.50
2019-04-21T02:04:57.590Z,15.50
2019-04-21T02:07:27.399Z,15.40
2019-04-21T02:10:05.130Z,15.40
2019-04-21T02:12:33.402Z,15.30
2019-04-21T02:15:11.478Z,15.30
2019-04-21T02:17:38.821Z,15.20
2019-04-21T02:20:05.383Z,15.20
2019-04-21T02:22:57.892Z,15.10
2019-04-21T02:25:16.569Z,15.00
2019-04-21T02:27:55.406Z,15.00
2019-04-21T02:30:27.539Z,15.00
2019-04-21T02:33:18.638Z,14.90
2019-04-21T02:35:45.544Z,14.90
2019-04-21T02:43:11.991Z,14.80
2019-04-21T02:50:46.929Z,14.50
2019-04-21T02:53:32.397Z,14.40
2019-04-21T02:58:44.445Z,14.20
2019-04-21T03:01:44.191Z,14.10
2019-04-21T03:07:14.949Z,14.00
2019-04-21T03:12:17.952Z,13.90
2019-04-21T03:20:02.212Z,13.90
2019-04-21T03:22:24.279Z,13.90
2019-04-21T03:27:52.799Z,13.80
2019-04-21T03:33:23.768Z,13.60
2019-04-21T03:35:44.010Z,13.50
2019-04-21T03:37:43.625Z,13.40
2019-04-21T03:40:18.818Z,13.30
2019-04-21T03:45:30.694Z,13.30
2019-04-21T03:47:53.258Z,13.30
2019-04-21T03:50:41.107Z,13.30
2019-04-21T04:01:16.278Z,13.30
2019-04-21T04:04:30.279Z,13.30
2019-04-21T04:07:04.466Z,13.20
2019-04-21T04:12:21.919Z,13.00
2019-04-21T04:14:38.819Z,13.00
2019-04-21T04:17:11.976Z,13.00
2019-04-21T04:19:39.981Z,13.00
2019-04-21T04:22:31.070Z,13.00
2019-04-21T04:24:51.562Z,13.00
2019-04-21T04:27:35.187Z,13.00
2019-04-21T04:29:50.279Z,12.90
2019-04-21T04:32:25.296Z,12.90
2019-04-21T04:34:57.334Z,12.80
2019-04-21T04:37:32.194Z,12.80
2019-04-21T04:45:44.526Z,12.60
2019-04-21T04:50:51.526Z,12.60
2019-04-21T04:53:20.277Z,12.60
2019-04-21T04:55:53.070Z,12.60
2019-04-21T04:58:29.272Z,12.70
2019-04-21T05:01:06.229Z,12.80
2019-04-21T05:03:39.871Z,12.80
2019-04-21T05:06:51.325Z,12.90
2019-04-21T05:14:18.336Z,13.10
2019-04-21T05:19:16.435Z,13.20
2019-04-21T05:22:05.832Z,13.20
2019-04-21T05:24:13.622Z,13.30
2019-04-21T05:26:44.740Z,13.30
2019-04-21T05:29:13.040Z,13.40
2019-04-21T05:32:04.977Z,13.40
2019-04-21T05:34:31.945Z,13.50
2019-04-21T05:37:17.281Z,13.60
2019-04-21T05:39:56.999Z,13.60
2019-04-21T05:42:28.442Z,13.70
2019-04-21T05:45:07.686Z,13.80
2019-04-21T05:47:51.155Z,13.80
2019-04-21T05:50:16.729Z,13.90
2019-04-21T05:52:44.709Z,13.90
2019-04-21T05:55:34.125Z,14.00
2019-04-21T05:57:57.303Z,14.10
2019-04-21T06:00:59.690Z,14.10
2019-04-21T06:03:12.060Z,14.20
2019-04-21T06:05:53.424Z,14.30
2019-04-21T06:08:23.330Z,14.30
2019-04-21T06:10:58.811Z,14.40
2019-04-21T06:13:33.452Z,14.50
2019-04-21T06:18:41.334Z,14.60
2019-04-21T06:21:00.403Z,14.70
2019-04-21T06:23:36.025Z,14.80
2019-04-21T06:26:19.992Z,14.90
2019-04-21T06:28:45.349Z,15.00
2019-04-21T06:31:58.116Z,15.10
2019-04-21T06:33:53.245Z,15.20
2019-04-21T06:36:47.435Z,15.30
2019-04-21T06:41:34.249Z,15.40
2019-04-21T06:44:27.861Z,15.50
2019-04-21T06:46:39.320Z,15.70
2019-04-21T06:49:08.346Z,15.70
2019-04-21T06:51:43.545Z,15.90
2019-04-21T06:54:21.988Z,16.00
2019-04-21T06:56:54.300Z,16.10
2019-04-21T06:59:21.086Z,16.20
2019-04-21T07:02:08.337Z,16.30
2019-04-21T07:04:51.788Z,16.40
2019-04-21T07:07:06.794Z,16.50
2019-04-21T07:09:36.450Z,16.60
2019-04-21T07:12:07.432Z,16.70
2019-04-21T07:14:58.961Z,16.80
2019-04-21T07:17:20.106Z,16.90
2019-04-21T07:22:24.578Z,17.10
2019-04-21T07:24:49.327Z,17.30
2019-04-21T07:27:33.899Z,17.40
2019-04-21T07:29:59.541Z,17.50
2019-04-21T07:32:36.388Z,17.70
2019-04-21T07:37:35.090Z,17.90
2019-04-21T07:40:05.207Z,18.00
2019-04-21T07:42:38.027Z,18.10
2019-04-21T07:45:07.242Z,18.20
2019-04-21T07:47:53.467Z,18.30
2019-04-21T07:50:32.060Z,18.40
2019-04-21T07:53:24.288Z,18.60
2019-04-21T07:58:26.293Z,18.80
2019-04-21T08:01:04.409Z,19.00
2019-04-21T08:03:35.420Z,19.10
2019-04-21T08:05:59.200Z,19.20
2019-04-21T08:08:26.510Z,19.30
2019-04-21T08:10:57.314Z,19.40
2019-04-21T08:18:42.406Z,19.60
2019-04-21T08:21:17.589Z,19.80
2019-04-21T08:23:43.117Z,19.90
2019-04-21T08:26:15.148Z,20.00
2019-04-21T08:28:52.459Z,20.10
2019-04-21T08:31:27.838Z,20.20
2019-04-21T08:34:01.725Z,20.20
2019-04-21T08:39:03.237Z,20.80
2019-04-21T08:41:28.091Z,21.20
2019-04-21T08:43:56.105Z,21.60
2019-04-21T08:46:42.694Z,22.30
2019-04-21T08:49:09.413Z,23.20
2019-04-21T08:52:05.181Z,24.30
2019-04-21T08:54:16.793Z,25.20
2019-04-21T08:57:04.060Z,26.00
2019-04-21T08:59:55.103Z,26.80
2019-04-21T09:02:29.708Z,27.60
2019-04-21T09:05:00.174Z,28.20
2019-04-21T09:07:32.111Z,28.60
2019-04-21T09:10:03.249Z,28.80
2019-04-21T09:12:34.679Z,29.10
2019-04-21T09:15:08.070Z,29.50
2019-04-21T09:17:32.788Z,30.10
2019-04-21T09:20:22.346Z,30.40
2019-04-21T09:22:49.090Z,30.70
2019-04-21T09:25:19.608Z,31.10
2019-04-21T09:27:47.139Z,31.30
2019-04-21T09:30:04.870Z,31.30
2019-04-21T09:32:37.046Z,31.60
2019-04-21T09:35:11.258Z,32.40
2019-04-21T09:37:51.327Z,32.90
2019-04-21T09:40:14.982Z,33.30
2019-04-21T09:42:54.171Z,33.30
2019-04-21T09:45:17.804Z,33.50
2019-04-21T09:47:59.075Z,33.90
2019-04-21T09:50:22.444Z,34.20
2019-04-21T09:52:58.697Z,34.30
2019-04-21T09:55:31.961Z,33.90
2019-04-21T09:58:09.233Z,34.20
2019-04-21T10:00:37.963Z,34.30
2019-04-21T10:03:06.698Z,34.20
2019-04-21T10:05:34.042Z,34.30
2019-04-21T10:08:05.860Z,34.10
2019-04-21T10:10:36.524Z,34.20
2019-04-21T10:13:07.153Z,34.30
2019-04-21T10:15:39.624Z,34.60
2019-04-21T10:18:17.413Z,34.60
2019-04-21T10:20:49.205Z,34.80
2019-04-21T10:23:21.131Z,34.60
2019-04-21T10:25:54.872Z,34.30
2019-04-21T10:28:26.847Z,34.00
2019-04-21T10:30:58.558Z,34.10
2019-04-21T10:33:30.342Z,34.40
2019-04-21T10:36:01.281Z,34.90
2019-04-21T10:38:38.913Z,35.20
2019-04-21T10:41:05.386Z,35.10
2019-04-21T10:43:37.513Z,34.90
2019-04-21T10:46:08.820Z,34.50
2019-04-21T10:48:40.985Z,35.10
2019-04-21T10:51:13.029Z,36.00
2019-04-21T10:53:48.133Z,36.50
2019-04-21T10:56:28.592Z,36.60
2019-04-21T10:58:54.170Z,36.10
2019-04-21T11:01:31.364Z,36.00
2019-04-21T11:04:07.616Z,36.70
2019-04-21T11:06:38.880Z,37.30
2019-04-21T11:09:12.012Z,37.30
2019-04-21T11:11:46.411Z,37.30
2019-04-21T11:14:17.762Z,37.50
2019-04-21T11:16:52.622Z,37.40
2019-04-21T11:19:24.258Z,37.60
2019-04-21T11:21:56.891Z,38.30
2019-04-21T11:24:29.101Z,38.20
2019-04-21T11:27:01.780Z,37.80
2019-04-21T11:29:33.152Z,38.40
2019-04-21T11:32:03.353Z,38.50
2019-04-21T11:34:34.068Z,38.30
2019-04-21T11:37:08.057Z,38.40
2019-04-21T11:39:49.412Z,37.70
2019-04-21T11:42:17.620Z,37.20
2019-04-21T11:44:49.282Z,37.10
2019-04-21T11:47:30.423Z,36.80
2019-04-21T11:50:01.380Z,36.20
2019-04-21T11:52:32.625Z,35.90
2019-04-21T11:55:04.733Z,35.70
2019-04-21T11:57:40.186Z,36.20
2019-04-21T12:00:11.468Z,36.90
2019-04-21T12:02:43.628Z,37.30
2019-04-21T12:05:17.224Z,38.00
2019-04-21T12:07:49.348Z,38.10
2019-04-21T12:10:21.623Z,37.70
2019-04-21T12:12:53.126Z,38.00
2019-04-21T12:15:25.040Z,38.50
2019-04-21T12:17:56.521Z,38.60
2019-04-21T12:20:28.611Z,38.50
2019-04-21T12:22:58.813Z,38.70
2019-04-21T12:25:33.296Z,39.20
2019-04-21T12:28:05.972Z,39.40
2019-04-21T12:30:37.679Z,38.80
2019-04-21T12:33:16.078Z,38.20
2019-04-21T12:35:49.716Z,38.50
2019-04-21T12:38:36.357Z,39.00
2019-04-21T12:40:58.127Z,39.40
2019-04-21T12:43:30.584Z,39.30
2019-04-21T12:46:02.201Z,39.20
2019-04-21T12:48:35.731Z,38.90
2019-04-21T12:51:17.550Z,39.00
2019-04-21T12:53:49.855Z,39.00
2019-04-21T12:56:23.358Z,39.20
2019-04-21T12:58:57.684Z,39.70
2019-04-21T13:01:28.984Z,39.80
2019-04-21T13:03:59.991Z,39.90
2019-04-21T13:06:41.488Z,39.90
2019-04-21T13:09:18.337Z,39.30
2019-04-21T13:11:49.306Z,38.90
2019-04-21T13:14:21.999Z,39.20
2019-04-21T13:16:53.548Z,39.60
2019-04-21T13:19:25.001Z,39.80
2019-04-21T13:21:58.584Z,39.80
2019-04-21T13:24:39.939Z,39.30
2019-04-21T13:27:11.344Z,38.90
2019-04-21T13:29:44.037Z,38.80
2019-04-21T13:32:16.342Z,38.80
2019-04-21T13:34:47.844Z,38.60
2019-04-21T13:37:19.486Z,38.80
2019-04-21T13:40:31.213Z,38.90
2019-04-21T13:42:47.740Z,38.40
2019-04-21T13:45:16.368Z,37.60
2019-04-21T13:47:48.505Z,37.60
2019-04-21T13:50:21.366Z,37.80
2019-04-21T13:52:52.613Z,37.80
2019-04-21T13:55:23.536Z,37.90
2019-04-21T13:57:54.519Z,37.80
2019-04-21T14:00:27.526Z,38.00
2019-04-21T14:02:58.810Z,37.60
2019-04-21T14:05:30.722Z,37.40
2019-04-21T14:08:03.117Z,37.00
2019-04-21T14:10:35.486Z,36.70
2019-04-21T14:13:08.402Z,36.70
2019-04-21T14:15:39.954Z,36.70
2019-04-21T14:18:11.028Z,36.50
2019-04-21T14:20:43.019Z,36.50
2019-04-21T14:23:23.107Z,36.50
2019-04-21T14:25:47.967Z,37.00
2019-04-21T14:28:19.953Z,37.20
2019-04-21T14:30:52.543Z,37.50
2019-04-21T14:33:23.761Z,37.20
2019-04-21T14:35:55.032Z,36.80
2019-04-21T14:38:26.799Z,36.80
2019-04-21T14:40:58.352Z,36.90
2019-04-21T14:43:30.066Z,36.90
2019-04-21T14:46:17.648Z,36.80
2019-04-21T14:49:17.368Z,36.50
2019-04-21T14:52:10.793Z,36.30
2019-04-21T14:55:04.831Z,36.40
2019-04-21T14:57:36.911Z,36.40
2019-04-21T15:00:13.404Z,35.80
2019-04-21T15:02:45.519Z,35.50
2019-04-21T15:05:17.569Z,35.50
2019-04-21T15:07:48.955Z,35.60
2019-04-21T15:10:25.604Z,35.50
2019-04-21T15:12:54.138Z,35.10
2019-04-21T15:15:25.628Z,35.20
2019-04-21T15:17:57.813Z,35.60
2019-04-21T15:20:28.805Z,35.60
2019-04-21T15:23:00.173Z,35.20
2019-04-21T15:25:32.335Z,35.00
2019-04-21T15:28:03.682Z,35.10
2019-04-21T15:30:34.510Z,35.30
2019-04-21T15:33:04.959Z,35.30
2019-04-21T15:35:35.707Z,35.00
2019-04-21T15:38:07.614Z,34.50
2019-04-21T15:40:47.372Z,34.10
2019-04-21T15:43:12.595Z,33.70
2019-04-21T15:45:44.557Z,33.70
2019-04-21T15:48:16.074Z,33.70
2019-04-21T15:50:48.154Z,33.30
2019-04-21T15:53:21.550Z,32.50
2019-04-21T15:56:10.897Z,31.90
2019-04-21T15:58:48.420Z,31.50
2019-04-21T16:01:30.598Z,31.20
2019-04-21T16:04:02.438Z,30.80
2019-04-21T16:06:33.229Z,30.40
2019-04-21T16:09:06.428Z,29.90
2019-04-21T16:11:37.882Z,29.60
2019-04-21T16:14:10.131Z,29.30
2019-04-21T16:16:41.231Z,28.90
2019-04-21T16:19:12.433Z,28.60
2019-04-21T16:21:46.330Z,28.30
2019-04-21T16:24:16.571Z,28.10
2019-04-21T16:26:46.843Z,27.90
2019-04-21T16:29:18.346Z,27.80
2019-04-21T16:31:49.298Z,27.60
2019-04-21T16:34:19.984Z,27.50
2019-04-21T16:36:52.199Z,27.50
2019-04-21T16:39:23.288Z,27.40
2019-04-21T16:41:55.080Z,27.40
2019-04-21T16:44:27.400Z,27.50
2019-04-21T16:46:59.649Z,27.50
2019-04-21T16:49:31.783Z,27.50
2019-04-21T16:52:18.308Z,27.40
2019-04-21T16:54:53.808Z,27.30
2019-04-21T16:57:33.452Z,27.20
2019-04-21T17:00:10.560Z,27.10
2019-04-21T17:02:42.774Z,26.90
2019-04-21T17:05:14.453Z,26.80
2019-04-21T17:07:47.118Z,26.80
2019-04-21T17:10:17.885Z,26.80
2019-04-21T17:12:48.420Z,26.80
2019-04-21T17:15:35.594Z,26.70
2019-04-21T17:18:08.834Z,26.50
2019-04-21T17:20:39.444Z,26.40
2019-04-21T17:22:59.741Z,26.20
2019-04-21T17:25:30.400Z,26.10
2019-04-21T17:28:01.628Z,26.10
2019-04-21T17:30:34.750Z,26.00
2019-04-21T17:33:11.212Z,26.00
2019-04-21T17:35:38.600Z,25.80
2019-04-21T17:38:09.950Z,25.70
2019-04-21T17:40:42.005Z,25.60
2019-04-21T17:43:17.493Z,25.40
2019-04-21T17:45:46.771Z,25.30
2019-04-21T17:48:19.739Z,25.20
2019-04-21T17:51:13.619Z,25.00
2019-04-21T17:54:03.011Z,24.90
2019-04-21T17:57:02.835Z,24.70
2019-04-21T17:59:43.070Z,24.60
2019-04-21T18:01:59.421Z,24.50
2019-04-21T18:04:30.971Z,24.40
2019-04-21T18:07:29.077Z,24.30
2019-04-21T18:10:04.434Z,24.20
2019-04-21T18:12:33.617Z,24.00
2019-04-21T18:15:00.090Z,23.80
2019-04-21T18:17:24.534Z,23.70
2019-04-21T18:19:57.284Z,23.50
2019-04-21T18:22:51.256Z,23.40
2019-04-21T18:25:34.992Z,23.30
2019-04-21T18:27:56.550Z,23.10
2019-04-21T18:30:48.553Z,23.00
2019-04-21T18:33:25.382Z,22.90
2019-04-21T18:36:30.250Z,22.70
2019-04-21T18:39:31.217Z,22.60
2019-04-21T18:42:15.350Z,22.50
2019-04-21T18:45:28.078Z,22.30
2019-04-21T18:47:48.938Z,22.10
2019-04-21T18:50:30.371Z,22.00
2019-04-21T18:53:16.584Z,21.80
2019-04-21T18:55:45.349Z,21.70
2019-04-21T18:58:14.187Z,21.60
2019-04-21T19:00:45.894Z,21.50
2019-04-21T19:03:25.289Z,21.40
2019-04-21T19:05:58.253Z,21.30
2019-04-21T19:08:46.869Z,21.30
2019-04-21T19:11:13.491Z,21.20
2019-04-21T19:14:15.714Z,21.10
2019-04-21T19:16:42.604Z,21.10
2019-04-21T19:21:34.453Z,21.00
2019-04-21T19:26:52.170Z,20.80
2019-04-21T19:29:26.680Z,20.70
2019-04-21T19:31:57.740Z,20.60
2019-04-21T19:34:18.471Z,20.50
2019-04-21T19:36:51.262Z,20.40
2019-04-21T19:39:26.745Z,20.40
2019-04-21T19:42:00.537Z,20.40
2019-04-21T19:44:38.301Z,20.40
2019-04-21T19:47:10.526Z,20.40
2019-04-21T19:49:45.222Z,20.40
2019-04-21T19:52:05.215Z,20.40
2019-04-21T19:54:35.550Z,20.30
2019-04-21T19:57:02.896Z,20.30
2019-04-21T19:59:40.718Z,20.30
2019-04-21T20:02:06.937Z,20.30
2019-04-21T20:04:44.003Z,20.30
2019-04-21T20:07:26.267Z,20.20
2019-04-21T20:10:05.169Z,20.20
2019-04-21T20:12:36.857Z,20.20
2019-04-21T20:15:16.620Z,20.20
2019-04-21T20:17:36.597Z,20.10
2019-04-21T20:19:53.848Z,20.10
2019-04-21T20:22:34.892Z,20.10
2019-04-21T20:25:04.559Z,20.00
2019-04-21T20:27:41.306Z,20.00
2019-04-21T20:30:21.741Z,19.90
2019-04-21T20:33:01.586Z,19.80
2019-04-21T20:35:40.520Z,19.80
2019-04-21T20:37:59.114Z,19.80
2019-04-21T20:40:25.358Z,19.80
2019-04-21T20:43:10.198Z,19.70
2019-04-21T20:45:43.004Z,19.70
2019-04-21T20:47:56.054Z,19.70
2019-04-21T20:50:36.459Z,19.70
2019-04-21T20:53:14.550Z,19.60
2019-04-21T20:55:48.140Z,19.60
2019-04-21T20:58:22.346Z,19.50
2019-04-21T21:01:19.061Z,19.50
2019-04-21T21:03:30.378Z,19.50
2019-04-21T21:05:54.324Z,19.40
2019-04-21T21:08:35.721Z,19.40
2019-04-21T21:11:00.283Z,19.30
2019-04-21T21:13:42.781Z,19.30
2019-04-21T21:16:13.724Z,19.30
2019-04-21T21:21:15.188Z,19.10
2019-04-21T21:23:51.176Z,19.10
2019-04-21T21:26:25.766Z,19.00
2019-04-21T21:28:50.157Z,19.00
2019-04-21T21:31:35.598Z,18.90
2019-04-21T21:34:08.243Z,18.90
2019-04-21T21:36:33.563Z,18.80
2019-04-21T21:39:09.657Z,18.80
2019-04-21T21:41:28.882Z,18.70
2019-04-21T21:44:03.939Z,18.70
2019-04-21T21:46:42.996Z,18.60
2019-04-21T21:49:07.447Z,18.60
2019-04-21T21:51:42.857Z,18.50
2019-04-21T21:54:03.066Z,18.40
2019-04-21T21:56:36.410Z,18.40
2019-04-21T21:59:15.979Z,18.30
2019-04-21T22:01:45.500Z,18.20
2019-04-21T22:04:19.264Z,18.20
2019-04-21T22:06:54.184Z,18.10
2019-04-21T22:09:18.490Z,18.10
2019-04-21T22:11:55.157Z,18.00
2019-04-21T22:14:28.985Z,18.00
2019-04-21T22:17:11.153Z,17.90
2019-04-21T22:19:52.491Z,17.80
2019-04-21T22:22:15.840Z,17.80
2019-04-21T22:24:46.472Z,17.70
2019-04-21T22:27:05.472Z,17.70
2019-04-21T22:29:41.797Z,17.60
2019-04-21T22:32:15.271Z,17.60
2019-04-21T22:34:47.698Z,17.50
2019-04-21T22:37:30.767Z,17.40
2019-04-21T22:40:01.842Z,17.40
2019-04-21T22:42:26.767Z,17.30
2019-04-21T22:44:52.891Z,17.20
2019-04-21T22:47:27.014Z,17.20
2019-04-21T22:49:56.861Z,17.10
2019-04-21T22:52:29.956Z,17.00
2019-04-21T22:55:08.239Z,17.00
2019-04-21T22:57:42.400Z,16.90
2019-04-21T23:00:11.714Z,16.80
2019-04-21T23:02:42.784Z,16.80
2019-04-21T23:05:16.849Z,16.70
2019-04-21T23:07:51.273Z,16.70
2019-04-21T23:10:23.247Z,16.60
2019-04-21T23:12:59.604Z,16.60
2019-04-21T23:15:34.553Z,16.50
2019-04-21T23:18:21.954Z,16.50
2019-04-21T23:20:53.542Z,16.40
2019-04-21T23:23:29.248Z,16.40
2019-04-21T23:25:53.193Z,16.40
2019-04-21T23:28:20.839Z,16.30
2019-04-21T23:31:00.893Z,16.30
2019-04-21T23:33:18.011Z,16.20
2019-04-21T23:35:49.564Z,16.20
2019-04-21T23:38:27.839Z,16.10
2019-04-21T23:40:58.216Z,16.10
2019-04-21T23:43:29.338Z,16.00
2019-04-21T23:46:01.689Z,15.90
2019-04-21T23:48:44.236Z,15.80
2019-04-21T23:51:15.941Z,15.80
2019-04-21T23:53:37.426Z,15.80
2019-04-21T23:56:08.523Z,15.70
2019-04-21T23:58:40.276Z,15.70
